createdAt,value
2023-02-09T00:01:50.010Z,103056.88
2023-02-09T00:04:21.692Z,103053.47
2023-02-09T00:06:53.186Z,103043.97
2023-02-09T00:09:25.011Z,103048.53
2023-02-09T00:12:15.580Z,103036.56
2023-02-09T00:14:47.086Z,103034.09
2023-02-09T00:17:19.018Z,103031.50
2023-02-09T00:19:50.519Z,103029.94
2023-02-09T00:22:22.302Z,103030.84
2023-02-09T00:24:55.491Z,103029.28
2023-02-09T00:27:28.157Z,103039.06
2023-02-09T00:29:59.657Z,103035.63
2023-02-09T00:32:31.465Z,103027.94
2023-02-09T00:35:03.181Z,103027.03
2023-02-09T00:37:35.110Z,103022.88
2023-02-09T00:40:06.665Z,103013.41
2023-02-09T00:42:38.722Z,103009.91
2023-02-09T00:45:10.241Z,103013.69
2023-02-09T00:47:42.196Z,103013.69
2023-02-09T00:50:13.697Z,103009.31
2023-02-09T00:52:45.512Z,103007.56
2023-02-09T00:55:17.015Z,103015.22
2023-02-09T00:57:48.797Z,103011.72
2023-02-09T01:00:21.419Z,103007.41
2023-02-09T01:02:53.312Z,103010.16
2023-02-09T01:05:24.823Z,102999.88
2023-02-09T01:07:56.629Z,102998.06
2023-02-09T01:10:28.137Z,103002.47
2023-02-09T01:12:59.861Z,102996.50
2023-02-09T01:15:31.388Z,102990.66
2023-02-09T01:18:03.242Z,102990.56
2023-02-09T01:20:34.778Z,102997.69
2023-02-09T01:23:06.686Z,102988.19
2023-02-09T01:25:38.182Z,102983.16
2023-02-09T01:28:10.086Z,102985.06
2023-02-09T01:30:41.687Z,102993.72
2023-02-09T01:33:13.513Z,102980.97
2023-02-09T01:35:45.014Z,102977.53
2023-02-09T01:38:16.755Z,102970.56
2023-02-09T01:40:48.297Z,102966.19
2023-02-09T01:43:20.296Z,102968.13
2023-02-09T01:45:54.537Z,102968.13
2023-02-09T01:48:26.485Z,102956.03
2023-02-09T01:50:57.986Z,102953.50
2023-02-09T01:53:29.754Z,102950.09
2023-02-09T01:56:01.255Z,102943.16
2023-02-09T01:58:32.955Z,102942.31
2023-02-09T02:01:04.489Z,102948.47
2023-02-09T02:03:36.368Z,102936.38
2023-02-09T02:06:07.861Z,102939.97
2023-02-09T02:08:39.729Z,102928.66
2023-02-09T02:11:11.219Z,102923.50
2023-02-09T02:13:43.056Z,102919.28
2023-02-09T02:16:14.643Z,102920.34
2023-02-09T02:18:46.440Z,102915.13
2023-02-09T02:21:17.961Z,102913.50
2023-02-09T02:23:49.920Z,102914.34
2023-02-09T02:26:21.421Z,102904.78
2023-02-09T02:28:53.014Z,102900.50
2023-02-09T02:31:24.614Z,102908.31
2023-02-09T02:33:56.640Z,102908.44
2023-02-09T02:36:28.481Z,102901.69
2023-02-09T02:39:00.178Z,102896.59
2023-02-09T02:41:51.693Z,102897.31
2023-02-09T02:44:23.532Z,102886.06
2023-02-09T02:46:55.015Z,102891.22
2023-02-09T02:49:26.809Z,102893.03
2023-02-09T02:51:58.311Z,102892.13
2023-02-09T02:54:30.016Z,102885.22
2023-02-09T02:57:03.302Z,102880.09
2023-02-09T02:59:35.043Z,102879.97
2023-02-09T03:02:06.605Z,102878.19
2023-02-09T03:04:38.521Z,102878.91
2023-02-09T03:07:10.028Z,102866.94
2023-02-09T03:09:41.946Z,102872.94
2023-02-09T03:12:13.446Z,102871.09
2023-02-09T03:14:45.313Z,102864.00
2023-02-09T03:17:16.818Z,102866.53
2023-02-09T03:19:48.613Z,102866.47
2023-02-09T03:22:20.131Z,102871.63
2023-02-09T03:24:51.993Z,102869.94
2023-02-09T03:27:23.501Z,102860.38
2023-02-09T03:29:55.545Z,102861.91
2023-02-09T03:32:27.116Z,102871.63
2023-02-09T03:34:59.213Z,102860.44
2023-02-09T03:37:30.701Z,102853.47
2023-02-09T03:40:02.492Z,102848.41
2023-02-09T03:42:33.991Z,102845.22
2023-02-09T03:45:08.344Z,102841.00
2023-02-09T03:47:39.881Z,102835.03
2023-02-09T03:50:11.864Z,102843.03
2023-02-09T03:52:43.410Z,102840.50
2023-02-09T03:55:15.404Z,102841.41
2023-02-09T03:57:46.923Z,102835.47
2023-02-09T04:00:18.984Z,102836.59
2023-02-09T04:02:50.547Z,102831.44
2023-02-09T04:05:23.074Z,102830.53
2023-02-09T04:07:54.837Z,102831.25
2023-02-09T04:10:26.368Z,102832.16
2023-02-09T04:12:57.907Z,102829.75
2023-02-09T04:15:29.605Z,102824.56
2023-02-09T04:18:01.119Z,102829.06
2023-02-09T04:20:32.631Z,102828.13
2023-02-09T04:23:04.134Z,102825.75
2023-02-09T04:25:36.003Z,102827.34
2023-02-09T04:28:07.615Z,102822.38
2023-02-09T04:30:39.478Z,102817.09
2023-02-09T04:33:11.308Z,102825.75
2023-02-09T04:35:45.841Z,102818.91
2023-02-09T04:38:19.457Z,102824.06
2023-02-09T04:40:51.330Z,102818.84
2023-02-09T04:43:22.842Z,102815.59
2023-02-09T04:45:55.041Z,102813.06
2023-02-09T04:48:26.590Z,102823.53
2023-02-09T04:50:58.316Z,102819.13
2023-02-09T04:53:30.030Z,102825.28
2023-02-09T04:56:01.555Z,102825.47
2023-02-09T04:58:52.094Z,102817.00
2023-02-09T05:01:23.661Z,102814.41
2023-02-09T05:03:55.702Z,102814.59
2023-02-09T05:06:27.206Z,102811.22
2023-02-09T05:08:58.910Z,102806.09
2023-02-09T05:11:30.427Z,102808.69
2023-02-09T05:14:02.433Z,102808.56
2023-02-09T05:16:34.051Z,102819.81
2023-02-09T05:19:05.868Z,102811.34
2023-02-09T05:21:37.392Z,102808.03
2023-02-09T05:24:08.897Z,102800.97
2023-02-09T05:26:40.396Z,102800.97
2023-02-09T05:29:11.959Z,102801.75
2023-02-09T05:31:43.546Z,102803.50
2023-02-09T05:34:15.398Z,102794.78
2023-02-09T05:36:47.757Z,102802.59
2023-02-09T05:39:19.544Z,102793.81
2023-02-09T05:42:09.931Z,102797.03
2023-02-09T05:44:41.677Z,102798.78
2023-02-09T05:47:13.212Z,102790.91
2023-02-09T05:49:45.023Z,102800.69
2023-02-09T05:52:16.707Z,102799.84
2023-02-09T05:54:48.652Z,102798.09
2023-02-09T05:57:20.174Z,102795.69
2023-02-09T05:59:52.025Z,102805.31
2023-02-09T06:02:23.559Z,102803.63
2023-02-09T06:04:55.415Z,102804.59
2023-02-09T06:07:26.951Z,102802.97
2023-02-09T06:09:58.597Z,102808.94
2023-02-09T06:12:30.137Z,102805.69
2023-02-09T06:15:02.953Z,102802.19
2023-02-09T06:17:34.469Z,102809.16
2023-02-09T06:20:06.075Z,102804.00
2023-02-09T06:22:37.566Z,102803.94
2023-02-09T06:25:09.191Z,102803.69
2023-02-09T06:27:40.714Z,102803.75
2023-02-09T06:30:12.333Z,102805.31
2023-02-09T06:32:43.793Z,102811.34
2023-02-09T06:35:15.554Z,102810.38
2023-02-09T06:37:47.024Z,102806.09
2023-02-09T06:40:18.699Z,102806.88
2023-02-09T06:42:50.212Z,102807.66
2023-02-09T06:45:21.844Z,102804.84
2023-02-09T06:47:53.328Z,102810.06
2023-02-09T06:50:27.579Z,102807.47
2023-02-09T06:52:59.195Z,102810.94
2023-02-09T06:55:31.080Z,102807.44
2023-02-09T06:58:02.571Z,102804.69
2023-02-09T07:00:34.110Z,102805.28
2023-02-09T07:03:05.713Z,102803.53
2023-02-09T07:05:37.594Z,102805.84
2023-02-09T07:08:09.141Z,102807.47
2023-02-09T07:10:40.711Z,102803.97
2023-02-09T07:13:12.234Z,102807.91
2023-02-09T07:15:43.727Z,102815.34
2023-02-09T07:18:15.222Z,102817.66
2023-02-09T07:20:47.168Z,102822.25
2023-02-09T07:23:18.808Z,102821.19
2023-02-09T07:25:50.817Z,102817.34
2023-02-09T07:28:22.558Z,102815.25
2023-02-09T07:30:54.457Z,102819.69
2023-02-09T07:33:26.013Z,102816.09
2023-02-09T07:35:57.606Z,102809.00
2023-02-09T07:38:29.153Z,102808.06
2023-02-09T07:41:00.939Z,102809.91
2023-02-09T07:43:32.450Z,102807.09
2023-02-09T07:46:04.139Z,102809.69
2023-02-09T07:48:35.623Z,102807.19
2023-02-09T07:51:07.530Z,102805.78
2023-02-09T07:53:39.003Z,102806.41
2023-02-09T07:56:10.762Z,102808.78
2023-02-09T07:58:42.272Z,102808.94
2023-02-09T08:01:14.147Z,102809.78
2023-02-09T08:03:45.742Z,102806.56
2023-02-09T08:06:19.719Z,102799.72
2023-02-09T08:08:51.621Z,102803.09
2023-02-09T08:11:23.116Z,102802.97
2023-02-09T08:13:54.579Z,102802.44
2023-02-09T08:16:26.522Z,102801.50
2023-02-09T08:18:58.014Z,102798.13
2023-02-09T08:21:29.510Z,102803.31
2023-02-09T08:24:01.031Z,102787.59
2023-02-09T08:26:32.890Z,102788.94
2023-02-09T08:29:04.434Z,102792.56
2023-02-09T08:31:36.076Z,102788.69
2023-02-09T08:34:07.659Z,102779.59
2023-02-09T08:36:41.661Z,102780.84
2023-02-09T08:39:13.173Z,102776.13
2023-02-09T08:41:46.250Z,102775.59
2023-02-09T08:44:17.973Z,102768.44
2023-02-09T08:46:49.810Z,102780.31
2023-02-09T08:49:21.449Z,102778.00
2023-02-09T08:51:53.343Z,102777.81
2023-02-09T08:54:25.412Z,102778.53
2023-02-09T08:56:57.310Z,102775.50
2023-02-09T08:59:28.814Z,102778.94
2023-02-09T09:02:00.628Z,102584.22
2023-02-09T09:04:32.165Z,102781.03
2023-02-09T09:07:04.199Z,102778.78
2023-02-09T09:09:35.703Z,102781.88
2023-02-09T09:12:07.287Z,102776.63
2023-02-09T09:14:39.623Z,102769.97
2023-02-09T09:17:11.170Z,102778.06
2023-02-09T09:19:42.728Z,102769.13
2023-02-09T09:22:14.224Z,102763.53
2023-02-09T09:24:45.934Z,102762.31
2023-02-09T09:27:17.426Z,102764.84
2023-02-09T09:29:49.701Z,102765.56
2023-02-09T09:32:25.026Z,102755.34
2023-02-09T09:34:57.896Z,102772.88
2023-02-09T09:37:29.440Z,102762.31
2023-02-09T09:40:01.188Z,102761.91
2023-02-09T09:42:32.690Z,102767.25
2023-02-09T09:45:04.387Z,102755.16
2023-02-09T09:47:35.996Z,102758.47
2023-02-09T09:50:08.068Z,102754.13
2023-02-09T09:52:41.948Z,102758.44
2023-02-09T09:55:13.637Z,102739.81
2023-02-09T09:57:45.121Z,102725.91
2023-02-09T10:00:16.863Z,102725.59
2023-02-09T10:02:49.532Z,102728.81
2023-02-09T10:05:21.381Z,102719.88
2023-02-09T10:07:52.878Z,102715.22
2023-02-09T10:10:24.592Z,102711.53
2023-02-09T10:12:56.116Z,102716.31
2023-02-09T10:15:28.301Z,102719.44
2023-02-09T10:17:59.799Z,102724.97
2023-02-09T10:20:31.544Z,102723.63
2023-02-09T10:23:03.056Z,102720.25
2023-02-09T10:25:34.827Z,102717.16
2023-02-09T10:28:06.476Z,102707.69
2023-02-09T10:30:38.089Z,102702.81
2023-02-09T10:33:09.579Z,102698.59
2023-02-09T10:35:41.521Z,102704.34
2023-02-09T10:38:13.069Z,102688.78
2023-02-09T10:40:44.961Z,102698.00
2023-02-09T10:43:16.423Z,102692.16
2023-02-09T10:45:48.655Z,102689.69
2023-02-09T10:48:20.400Z,102694.59
2023-02-09T10:50:52.305Z,102676.31
2023-02-09T10:53:23.914Z,102675.88
2023-02-09T10:55:55.925Z,102671.75
2023-02-09T10:58:27.649Z,102667.84
2023-02-09T11:00:59.494Z,102652.03
2023-02-09T11:03:31.061Z,102650.75
2023-02-09T11:06:03.107Z,102651.31
2023-02-09T11:08:34.636Z,102631.94
2023-02-09T11:11:06.565Z,102633.13
2023-02-09T11:13:38.099Z,102628.69
2023-02-09T11:16:09.820Z,102627.28
2023-02-09T11:18:41.389Z,102618.19
2023-02-09T11:21:13.305Z,102612.81
2023-02-09T11:23:44.814Z,102608.84
2023-02-09T11:26:16.670Z,102604.53
2023-02-09T11:28:48.138Z,102594.38
2023-02-09T11:31:20.081Z,102594.25
2023-02-09T11:33:51.598Z,102586.81
2023-02-09T11:36:23.389Z,102590.06
2023-02-09T11:38:54.853Z,102584.03
2023-02-09T11:41:45.598Z,102579.63
2023-02-09T11:44:17.104Z,102590.47
2023-02-09T11:46:52.465Z,102598.63
2023-02-09T11:49:23.988Z,102591.16
2023-02-09T11:51:55.765Z,102591.16
2023-02-09T11:54:27.305Z,102592.69
2023-02-09T11:57:02.646Z,102599.59
2023-02-09T11:59:34.308Z,102608.06
2023-02-09T12:02:06.191Z,102607.03
2023-02-09T12:04:37.779Z,102600.59
2023-02-09T12:07:09.939Z,102596.91
2023-02-09T12:09:41.478Z,102592.06
2023-02-09T12:12:13.883Z,102587.28
2023-02-09T12:14:45.895Z,102577.00
2023-02-09T12:17:17.748Z,102575.78
2023-02-09T12:19:51.958Z,102589.16
2023-02-09T12:22:23.827Z,102582.34
2023-02-09T12:24:55.323Z,102584.00
2023-02-09T12:27:27.106Z,102583.25
2023-02-09T12:29:59.054Z,102580.59
2023-02-09T12:32:31.058Z,102581.47
2023-02-09T12:35:02.962Z,102583.88
2023-02-09T12:37:37.384Z,102577.50
2023-02-09T12:40:11.936Z,102567.66
2023-02-09T12:42:43.814Z,102571.50
2023-02-09T12:45:15.316Z,102567.53
2023-02-09T12:47:47.618Z,102551.34
2023-02-09T12:50:19.096Z,102556.19
2023-02-09T12:52:50.911Z,102554.56
2023-02-09T12:55:22.400Z,102556.34
2023-02-09T12:57:54.188Z,102559.13
2023-02-09T13:00:25.688Z,102558.16
2023-02-09T13:02:57.965Z,102555.66
2023-02-09T13:05:29.508Z,102547.88
2023-02-09T13:08:01.298Z,102550.69
2023-02-09T13:10:32.794Z,102559.88
2023-02-09T13:13:04.794Z,102554.31
2023-02-09T13:15:36.766Z,102556.00
2023-02-09T13:18:08.817Z,102570.03
2023-02-09T13:20:40.290Z,102572.97
2023-02-09T13:23:12.103Z,102582.53
2023-02-09T13:25:44.285Z,102577.09
2023-02-09T13:28:16.652Z,102584.09
2023-02-09T13:30:48.215Z,102576.19
2023-02-09T13:33:20.097Z,102583.25
2023-02-09T13:35:51.609Z,102576.41
2023-02-09T13:38:24.119Z,102600.38
2023-02-09T13:40:55.638Z,102594.28
2023-02-09T13:43:27.219Z,102601.38
2023-02-09T13:45:58.815Z,102592.84
2023-02-09T13:48:30.999Z,102590.97
2023-02-09T13:51:02.519Z,102599.06
2023-02-09T13:53:34.568Z,102592.09
2023-02-09T13:56:06.085Z,102583.75
2023-02-09T13:58:38.045Z,102569.69
2023-02-09T14:01:09.776Z,102567.91
2023-02-09T14:03:56.740Z,102557.66
2023-02-09T14:06:29.230Z,102566.63
2023-02-09T14:09:01.292Z,102560.31
2023-02-09T14:11:41.838Z,102558.38
2023-02-09T14:14:14.373Z,102552.63
2023-02-09T14:16:53.591Z,102544.97
2023-02-09T14:19:25.576Z,102533.44
2023-02-09T14:21:57.397Z,102528.56
2023-02-09T14:24:28.941Z,102526.41
2023-02-09T14:27:04.067Z,102541.97
2023-02-09T14:29:35.694Z,102550.50
2023-02-09T14:32:07.811Z,102548.72
2023-02-09T14:34:39.339Z,102535.28
2023-02-09T14:37:11.301Z,102523.81
2023-02-09T14:39:44.073Z,102537.13
2023-02-09T14:42:20.954Z,102543.81
2023-02-09T14:44:52.483Z,102539.44
2023-02-09T14:47:26.813Z,102556.25
2023-02-09T14:49:58.382Z,102557.31
2023-02-09T14:52:31.769Z,102569.38
2023-02-09T14:55:04.598Z,102568.22
2023-02-09T14:57:36.570Z,102567.50
2023-02-09T15:00:08.099Z,102572.59
2023-02-09T15:02:39.938Z,102552.47
2023-02-09T15:05:11.520Z,102568.53
2023-02-09T15:07:43.357Z,102555.50
2023-02-09T15:10:15.032Z,102547.13
2023-02-09T15:12:46.776Z,102544.06
2023-02-09T15:15:18.357Z,102536.56
2023-02-09T15:17:49.971Z,102542.53
2023-02-09T15:20:24.274Z,102546.00
2023-02-09T15:22:56.189Z,102527.25
2023-02-09T15:25:27.687Z,102526.66
2023-02-09T15:27:59.361Z,102527.88
2023-02-09T15:30:31.591Z,102507.28
2023-02-09T15:33:03.775Z,102519.88
2023-02-09T15:35:35.264Z,102525.13
2023-02-09T15:38:06.940Z,102531.66
2023-02-09T15:40:57.075Z,102526.66
2023-02-09T15:43:47.197Z,102518.41
2023-02-09T15:46:37.496Z,102509.31
2023-02-09T15:49:09.023Z,102521.81
2023-02-09T15:51:41.457Z,102529.22
2023-02-09T15:54:12.978Z,102545.34
2023-02-09T15:56:44.623Z,102545.19
2023-02-09T15:59:16.090Z,102540.28
2023-02-09T16:01:48.096Z,102530.66
2023-02-09T16:04:19.660Z,102527.66
2023-02-09T16:06:51.661Z,102505.88
2023-02-09T16:09:24.338Z,102496.78
2023-02-09T16:11:56.335Z,102501.66
2023-02-09T16:14:28.360Z,102492.22
2023-02-09T16:17:00.409Z,102520.75
2023-02-09T16:19:31.987Z,102515.75
2023-02-09T16:22:05.247Z,102518.91
2023-02-09T16:24:36.791Z,102505.28
2023-02-09T16:27:08.621Z,102497.00
2023-02-09T16:29:40.154Z,102493.66
2023-02-09T16:32:12.099Z,102500.09
2023-02-09T16:34:43.684Z,102493.38
2023-02-09T16:37:15.465Z,102488.13
2023-02-09T16:39:46.962Z,102494.66
2023-02-09T16:42:18.854Z,102512.09
2023-02-09T16:44:50.336Z,102512.09
2023-02-09T16:47:22.220Z,102526.03
2023-02-09T16:49:53.708Z,102517.66
2023-02-09T16:52:26.306Z,102520.28
2023-02-09T16:54:57.799Z,102512.94
2023-02-09T16:57:29.501Z,102512.31
2023-02-09T17:00:00.994Z,102511.59
2023-02-09T17:02:32.855Z,102511.09
2023-02-09T17:05:04.441Z,102515.72
2023-02-09T17:07:52.298Z,102520.13
2023-02-09T17:10:25.332Z,102533.66
2023-02-09T17:12:57.115Z,102537.25
2023-02-09T17:15:31.053Z,102543.44
2023-02-09T17:18:03.691Z,102538.28
2023-02-09T17:20:35.238Z,102543.66
2023-02-09T17:23:07.187Z,102547.22
2023-02-09T17:25:38.665Z,102532.22
2023-02-09T17:28:10.775Z,102541.75
2023-02-09T17:30:42.272Z,102549.84
2023-02-09T17:33:14.067Z,102547.00
2023-02-09T17:36:17.709Z,102548.69
2023-02-09T17:38:37.441Z,102541.13
2023-02-09T17:41:08.973Z,102542.19
2023-02-09T17:43:40.469Z,102537.97
2023-02-09T17:46:12.006Z,102533.03
2023-02-09T17:48:43.876Z,102539.34
2023-02-09T17:51:15.450Z,102547.31
2023-02-09T17:53:47.077Z,102551.72
2023-02-09T17:56:19.345Z,102555.19
2023-02-09T17:58:51.162Z,102554.34
2023-02-09T18:01:25.337Z,102560.31
2023-02-09T18:03:58.833Z,102556.22
2023-02-09T18:06:33.491Z,102549.09
2023-02-09T18:09:05.368Z,102557.06
2023-02-09T18:11:36.867Z,102554.13
2023-02-09T18:17:10.617Z,102559.28
2023-02-09T18:19:42.163Z,102561.91
2023-02-09T18:22:14.163Z,102562.09
2023-02-09T18:24:45.705Z,102562.28
2023-02-09T18:27:17.584Z,102567.75
2023-02-09T18:29:49.121Z,102560.19
2023-02-09T18:32:21.161Z,102561.44
2023-02-09T18:34:52.807Z,102553.78
2023-02-09T18:37:24.883Z,102557.47
2023-02-09T18:39:56.396Z,102554.94
2023-02-09T18:42:28.405Z,102555.25
2023-02-09T18:44:59.954Z,102553.78
2023-02-09T18:47:33.099Z,102542.78
2023-02-09T18:50:04.751Z,102544.66
2023-02-09T18:52:36.736Z,102542.09
2023-02-09T18:55:08.256Z,102538.75
2023-02-09T18:57:40.146Z,102543.06
2023-02-09T19:00:11.650Z,102542.31
2023-02-09T19:02:44.654Z,102546.81
2023-02-09T19:05:16.216Z,102542.50
2023-02-09T19:07:48.154Z,102539.16
2023-02-09T19:10:19.659Z,102544.41
2023-02-09T19:12:51.466Z,102543.75
2023-02-09T19:15:25.807Z,102542.94
2023-02-09T19:17:57.547Z,102542.50
2023-02-09T19:20:29.080Z,102542.50
2023-02-09T19:23:01.084Z,102542.59
2023-02-09T19:25:33.211Z,102547.84
2023-02-09T19:28:04.773Z,102536.41
2023-02-09T19:30:36.419Z,102539.03
2023-02-09T19:33:08.095Z,102549.50
2023-02-09T19:35:39.767Z,102550.66
2023-02-09T19:38:11.561Z,102543.75
2023-02-09T19:40:43.405Z,102543.94
2023-02-09T19:43:15.163Z,102543.94
2023-02-09T19:45:47.034Z,102548.63
2023-02-09T19:48:22.463Z,102545.91
2023-02-09T19:50:54.066Z,102544.44
2023-02-09T19:53:25.580Z,102544.44
2023-02-09T19:55:57.224Z,102536.38
2023-02-09T19:58:28.993Z,102536.28
2023-02-09T20:01:02.022Z,102534.63
2023-02-09T20:03:33.790Z,102527.13
2023-02-09T20:06:05.371Z,102527.97
2023-02-09T20:08:37.391Z,102526.38
2023-02-09T20:11:08.869Z,102531.00
2023-02-09T20:13:40.439Z,102525.94
2023-02-09T20:16:11.991Z,102523.53
2023-02-09T20:18:43.825Z,102526.06
2023-02-09T20:21:15.352Z,102528.78
2023-02-09T20:23:47.428Z,102537.47
2023-02-09T20:26:19.275Z,102529.59
2023-02-09T20:28:51.226Z,102534.19
2023-02-09T20:31:22.780Z,102536.91
2023-02-09T20:33:54.304Z,102538.06
2023-02-09T20:36:25.966Z,102544.97
2023-02-09T20:38:57.514Z,102538.34
2023-02-09T20:41:29.026Z,102538.75
2023-02-09T20:44:19.319Z,102538.00
2023-02-09T20:46:57.011Z,102539.94
2023-02-09T20:49:36.266Z,102532.19
2023-02-09T20:52:07.827Z,102533.34
2023-02-09T20:54:39.710Z,102537.72
2023-02-09T20:57:11.254Z,102543.69
2023-02-09T20:59:42.841Z,102540.97
2023-02-09T21:02:15.853Z,102540.88
2023-02-09T21:04:47.711Z,102546.13
2023-02-09T21:07:20.185Z,102544.63
2023-02-09T21:09:54.277Z,102546.31
2023-02-09T21:12:25.805Z,102548.72
2023-02-09T21:14:58.935Z,102550.59
2023-02-09T21:17:30.579Z,102549.97
2023-02-09T21:20:02.416Z,102551.09
2023-02-09T21:22:33.986Z,102553.81
2023-02-09T21:25:05.877Z,102578.28
2023-02-09T21:27:37.450Z,102556.97
2023-02-09T21:30:09.148Z,102549.66
2023-02-09T21:32:40.670Z,102555.47
2023-02-09T21:35:12.484Z,102560.31
2023-02-09T21:37:44.511Z,102552.38
2023-02-09T21:40:16.514Z,102562.84
2023-02-09T21:42:48.022Z,102560.88
2023-02-09T21:45:19.558Z,102561.31
2023-02-09T21:47:51.658Z,102562.16
2023-02-09T21:50:23.372Z,102560.28
2023-02-09T21:52:54.934Z,102560.28
2023-02-09T21:55:26.476Z,102560.38
2023-02-09T21:57:58.139Z,102562.69
2023-02-09T22:00:31.153Z,102561.84
2023-02-09T22:03:02.807Z,102555.28
2023-02-09T22:05:34.330Z,102551.81
2023-02-09T22:08:06.191Z,102556.84
2023-02-09T22:10:37.696Z,102562.84
2023-02-09T22:13:09.863Z,102566.97
2023-02-09T22:15:41.408Z,102564.16
2023-02-09T22:18:13.306Z,102571.16
2023-02-09T22:20:46.828Z,102568.44
2023-02-09T22:23:18.806Z,102578.06
2023-02-09T22:25:50.356Z,102576.28
2023-02-09T22:28:22.060Z,102570.31
2023-02-09T22:30:53.612Z,102583.09
2023-02-09T22:33:25.199Z,102577.88
2023-02-09T22:35:56.690Z,102581.22
2023-02-09T22:38:28.440Z,102580.19
2023-02-09T22:40:59.938Z,102584.38
2023-02-09T22:43:31.805Z,102580.63
2023-02-09T22:46:03.322Z,102587.34
2023-02-09T22:48:35.172Z,102585.97
2023-02-09T22:51:06.685Z,102587.78
2023-02-09T22:53:38.257Z,102593.13
2023-02-09T22:56:09.892Z,102590.94
2023-02-09T22:58:41.705Z,102594.50
2023-02-09T23:01:13.414Z,102595.25
2023-02-09T23:03:45.038Z,102598.63
2023-02-09T23:06:16.595Z,102596.00
2023-02-09T23:08:48.483Z,102590.19
2023-02-09T23:11:19.990Z,102585.41
2023-02-09T23:14:07.081Z,102587.94
2023-02-09T23:16:40.500Z,102590.16
2023-02-09T23:19:13.310Z,102590.34
2023-02-09T23:21:44.866Z,102592.47
2023-02-09T23:24:16.753Z,102585.88
2023-02-09T23:26:48.289Z,102588.38
2023-02-09T23:29:20.178Z,102591.09
2023-02-09T23:31:51.681Z,102587.44
2023-02-09T23:34:23.594Z,102594.03
2023-02-09T23:36:55.107Z,102588.69
2023-02-09T23:39:28.644Z,102586.81
2023-02-09T23:42:00.185Z,102590.84
2023-02-09T23:44:31.762Z,102588.13
2023-02-09T23:47:03.332Z,102592.72
2023-02-09T23:49:35.654Z,102593.34
2023-02-09T23:52:07.187Z,102594.19
2023-02-09T23:54:38.866Z,102603.00
2023-02-09T23:57:10.388Z,102601.13
2023-02-09T23:59:42.252Z,102613.06
